createdAt,value
2022-10-04T00:02:31.709Z,9.01
2022-10-04T00:05:33.862Z,8.99
2022-10-04T00:08:38.774Z,9.03
2022-10-04T00:11:44.159Z,9.07
2022-10-04T00:14:46.245Z,9.04
2022-10-04T00:18:00.533Z,9.09
2022-10-04T00:21:03.895Z,9.01
2022-10-04T00:24:09.976Z,9.04
2022-10-04T00:27:19.934Z,9.02
2022-10-04T00:30:22.769Z,9.01
2022-10-04T00:33:35.004Z,8.99
2022-10-04T00:36:39.054Z,9.01
2022-10-04T00:39:42.487Z,9.03
2022-10-04T00:42:50.600Z,8.95
2022-10-04T00:45:54.492Z,8.91
2022-10-04T00:48:58.625Z,8.88
2022-10-04T00:52:02.747Z,8.85
2022-10-04T00:55:06.229Z,8.80
2022-10-04T00:58:16.483Z,8.78
2022-10-04T01:01:22.309Z,8.70
2022-10-04T01:04:27.667Z,8.71
2022-10-04T01:07:31.437Z,8.78
2022-10-04T01:10:36.446Z,8.69
2022-10-04T01:13:41.502Z,8.71
2022-10-04T01:16:43.552Z,8.77
2022-10-04T01:19:50.537Z,8.79
2022-10-04T01:22:53.601Z,8.68
2022-10-04T01:25:55.431Z,8.66
2022-10-04T01:28:58.608Z,8.66
2022-10-04T01:32:00.990Z,8.65
2022-10-04T01:35:03.053Z,8.55
2022-10-04T01:38:06.968Z,8.49
2022-10-04T01:41:09.854Z,8.49
2022-10-04T01:44:15.136Z,8.41
2022-10-04T01:47:19.004Z,8.35
2022-10-04T01:50:24.526Z,8.23
2022-10-04T01:53:29.016Z,8.11
2022-10-04T01:56:33.529Z,8.18
2022-10-04T01:59:40.756Z,7.98
2022-10-04T02:02:45.825Z,7.53
2022-10-04T02:05:51.003Z,7.62
2022-10-04T02:08:54.957Z,7.48
2022-10-04T02:11:57.160Z,7.67
2022-10-04T02:15:01.241Z,7.45
2022-10-04T02:18:03.614Z,6.98
2022-10-04T02:21:05.870Z,6.59
2022-10-04T02:24:09.514Z,6.50
2022-10-04T02:27:11.684Z,6.28
2022-10-04T02:30:13.869Z,6.20
2022-10-04T02:33:15.538Z,6.35
2022-10-04T02:36:17.862Z,6.64
2022-10-04T02:39:23.799Z,6.79
2022-10-04T02:42:33.654Z,6.93
2022-10-04T02:45:40.308Z,7.02
2022-10-04T02:48:45.489Z,7.18
2022-10-04T02:51:50.919Z,7.30
2022-10-04T02:54:57.813Z,7.41
2022-10-04T02:57:59.905Z,7.46
2022-10-04T03:01:01.680Z,7.53
2022-10-04T03:04:03.549Z,7.46
2022-10-04T03:07:06.677Z,7.53
2022-10-04T03:10:11.018Z,7.52
2022-10-04T03:13:13.328Z,7.53
2022-10-04T03:16:15.601Z,7.54
2022-10-04T03:19:18.214Z,7.52
2022-10-04T03:22:20.099Z,7.51
2022-10-04T03:25:26.327Z,7.54
2022-10-04T03:28:29.457Z,7.45
2022-10-04T03:31:42.242Z,7.21
2022-10-04T03:34:52.297Z,6.44
2022-10-04T03:37:55.212Z,6.33
2022-10-04T03:41:00.076Z,5.92
2022-10-04T03:44:05.041Z,5.84
2022-10-04T03:47:08.866Z,5.78
2022-10-04T03:50:14.453Z,5.79
2022-10-04T03:53:24.519Z,6.03
2022-10-04T03:56:29.689Z,6.32
2022-10-04T03:59:31.602Z,6.48
2022-10-04T04:02:36.327Z,6.64
2022-10-04T04:05:42.772Z,6.77
2022-10-04T04:08:47.426Z,6.31
2022-10-04T04:11:51.165Z,6.09
2022-10-04T04:14:53.395Z,6.09
2022-10-04T04:17:55.334Z,6.22
2022-10-04T04:20:59.283Z,6.10
2022-10-04T04:24:02.536Z,6.04
2022-10-04T04:27:05.722Z,6.17
2022-10-04T04:30:08.173Z,6.16
2022-10-04T04:33:15.715Z,5.72
2022-10-04T04:36:20.677Z,5.84
2022-10-04T04:39:23.265Z,5.96
2022-10-04T04:42:29.958Z,6.15
2022-10-04T04:45:33.187Z,6.21
2022-10-04T04:48:35.359Z,6.25
2022-10-04T04:51:37.313Z,6.11
2022-10-04T04:54:39.018Z,6.28
2022-10-04T04:57:42.845Z,6.24
2022-10-04T05:00:47.065Z,6.36
2022-10-04T05:03:59.789Z,6.44
2022-10-04T05:07:02.906Z,6.47
2022-10-04T05:10:19.256Z,6.56
2022-10-04T05:13:23.611Z,6.54
2022-10-04T05:16:28.233Z,6.52
2022-10-04T05:19:32.249Z,6.23
2022-10-04T05:22:35.191Z,5.85
2022-10-04T05:25:36.963Z,5.73
2022-10-04T05:28:40.624Z,6.04
2022-10-04T05:31:46.862Z,6.21
2022-10-04T05:34:49.947Z,6.36
2022-10-04T05:38:03.176Z,6.48
2022-10-04T05:41:08.354Z,6.57
2022-10-04T05:44:23.735Z,6.65
2022-10-04T05:47:26.846Z,6.37
2022-10-04T05:50:30.182Z,6.49
2022-10-04T05:53:32.629Z,6.46
2022-10-04T05:56:47.781Z,6.44
2022-10-04T06:00:04.706Z,6.37
2022-10-04T06:03:32.061Z,6.53
2022-10-04T06:06:37.804Z,6.68
2022-10-04T06:09:46.955Z,6.71
2022-10-04T06:12:53.293Z,6.86
2022-10-04T06:16:05.277Z,6.98
2022-10-04T06:19:33.913Z,7.01
2022-10-04T06:22:43.026Z,7.06
2022-10-04T06:25:47.058Z,7.01
2022-10-04T06:28:51.504Z,6.89
2022-10-04T06:32:14.456Z,6.72
2022-10-04T06:35:23.109Z,6.90
2022-10-04T06:38:40.003Z,7.03
2022-10-04T06:41:45.640Z,7.12
2022-10-04T06:45:01.747Z,7.21
2022-10-04T06:48:14.466Z,7.30
2022-10-04T06:51:23.639Z,7.41
2022-10-04T06:54:34.951Z,7.45
2022-10-04T06:57:46.166Z,7.53
2022-10-04T07:00:51.312Z,7.61
2022-10-04T07:03:57.230Z,7.63
2022-10-04T07:07:11.911Z,7.73
2022-10-04T07:10:30.130Z,7.78
2022-10-04T07:13:34.549Z,7.83
2022-10-04T07:16:39.179Z,7.88
2022-10-04T07:19:46.232Z,7.94
2022-10-04T07:22:52.012Z,7.98
2022-10-04T07:25:55.588Z,8.02
2022-10-04T07:29:01.292Z,8.05
2022-10-04T07:32:09.449Z,8.09
2022-10-04T07:35:17.050Z,8.11
2022-10-04T07:38:23.498Z,8.22
2022-10-04T07:41:28.674Z,8.18
2022-10-04T07:44:34.361Z,8.21
2022-10-04T07:47:36.168Z,8.24
2022-10-04T07:50:42.914Z,8.27
2022-10-04T07:53:48.889Z,8.37
2022-10-04T07:56:53.620Z,8.43
2022-10-04T08:00:01.049Z,8.57
2022-10-04T08:03:14.253Z,8.62
2022-10-04T08:06:22.176Z,8.66
2022-10-04T08:09:27.458Z,8.72
2022-10-04T08:12:34.112Z,8.89
2022-10-04T08:15:36.944Z,8.91
2022-10-04T08:18:42.813Z,8.93
2022-10-04T08:21:49.496Z,9.04
2022-10-04T08:24:57.867Z,9.10
2022-10-04T08:28:03.405Z,9.16
2022-10-04T08:31:13.245Z,9.31
2022-10-04T08:34:28.563Z,9.33
2022-10-04T08:37:35.347Z,9.39
2022-10-04T08:41:02.670Z,9.45
2022-10-04T08:44:34.564Z,9.55
2022-10-04T08:47:49.429Z,9.64
2022-10-04T08:51:08.918Z,9.74
2022-10-04T08:54:31.400Z,9.85
2022-10-04T08:58:06.128Z,9.91
2022-10-04T09:01:22.658Z,10.01
2022-10-04T09:04:42.036Z,10.08
2022-10-04T09:08:13.862Z,10.23
2022-10-04T09:11:30.718Z,10.37
2022-10-04T09:14:45.134Z,10.38
2022-10-04T09:17:53.294Z,10.43
2022-10-04T09:20:56.321Z,10.47
2022-10-04T09:24:16.626Z,10.58
2022-10-04T09:27:53.590Z,10.59
2022-10-04T09:31:01.460Z,10.69
2022-10-04T09:34:13.289Z,10.65
2022-10-04T09:37:29.734Z,10.70
2022-10-04T09:40:37.477Z,10.85
2022-10-04T09:43:57.717Z,10.97
2022-10-04T09:47:20.680Z,10.91
2022-10-04T09:50:30.582Z,11.01
2022-10-04T09:53:40.282Z,11.03
2022-10-04T09:56:51.457Z,11.04
2022-10-04T10:00:09.202Z,11.14
2022-10-04T10:03:25.793Z,11.15
2022-10-04T10:06:33.952Z,11.27
2022-10-04T10:09:39.945Z,11.29
2022-10-04T10:12:56.140Z,11.42
2022-10-04T10:16:05.157Z,11.58
2022-10-04T10:19:16.511Z,11.75
2022-10-04T10:22:26.602Z,11.96
2022-10-04T10:25:37.525Z,12.02
2022-10-04T10:28:57.063Z,12.00
2022-10-04T10:32:10.288Z,12.04
2022-10-04T10:35:19.834Z,11.99
2022-10-04T10:38:27.595Z,12.10
2022-10-04T10:41:38.195Z,12.15
2022-10-04T10:44:47.542Z,12.31
2022-10-04T10:47:54.073Z,12.31
2022-10-04T10:51:02.021Z,12.22
2022-10-04T10:54:21.281Z,12.43
2022-10-04T10:57:34.239Z,12.58
2022-10-04T11:00:42.454Z,12.60
2022-10-04T11:04:11.055Z,12.69
2022-10-04T11:07:31.413Z,12.74
2022-10-04T11:10:40.925Z,12.78
2022-10-04T11:14:00.939Z,12.84
2022-10-04T11:17:17.783Z,12.92
2022-10-04T11:20:34.069Z,12.98
2022-10-04T11:23:53.686Z,13.24
2022-10-04T11:27:08.628Z,13.34
2022-10-04T11:30:13.730Z,13.39
2022-10-04T11:33:29.142Z,13.32
2022-10-04T11:36:39.072Z,13.27
2022-10-04T11:40:10.671Z,13.39
2022-10-04T11:43:24.317Z,13.48
2022-10-04T11:46:32.797Z,13.48
2022-10-04T11:49:43.306Z,13.68
2022-10-04T11:53:03.847Z,13.91
2022-10-04T11:56:15.682Z,14.09
2022-10-04T11:59:23.388Z,14.24
2022-10-04T12:02:34.682Z,14.29
2022-10-04T12:05:53.108Z,14.19
2022-10-04T12:09:01.612Z,14.22
2022-10-04T12:12:27.025Z,14.15
2022-10-04T12:15:44.675Z,14.10
2022-10-04T12:19:01.151Z,14.11
2022-10-04T12:22:14.878Z,14.13
2022-10-04T12:25:32.496Z,14.35
2022-10-04T12:28:46.514Z,14.35
2022-10-04T12:31:50.837Z,14.39
2022-10-04T12:34:57.113Z,14.46
2022-10-04T12:38:18.632Z,14.65
2022-10-04T12:41:31.169Z,14.62
2022-10-04T12:44:40.324Z,14.82
2022-10-04T12:47:58.243Z,14.92
2022-10-04T12:51:10.228Z,14.85
2022-10-04T12:54:17.162Z,14.83
2022-10-04T12:57:33.373Z,14.75
2022-10-04T13:00:41.068Z,14.86
2022-10-04T13:04:00.734Z,14.92
2022-10-04T13:07:23.375Z,14.92
2022-10-04T13:10:29.982Z,14.90
2022-10-04T13:13:48.992Z,14.98
2022-10-04T13:20:34.223Z,15.13
2022-10-04T13:23:47.744Z,15.17
2022-10-04T13:26:55.115Z,15.32
2022-10-04T13:30:01.401Z,15.24
2022-10-04T13:33:11.324Z,15.29
2022-10-04T13:36:18.186Z,15.27
2022-10-04T13:39:41.740Z,15.29
2022-10-04T13:42:54.501Z,15.35
2022-10-04T13:46:01.689Z,15.43
2022-10-04T13:49:13.852Z,15.67
2022-10-04T13:52:23.209Z,15.53
2022-10-04T13:55:32.564Z,15.35
2022-10-04T13:58:42.705Z,15.27
2022-10-04T14:01:54.716Z,15.41
2022-10-04T14:05:12.894Z,15.43
2022-10-04T14:08:33.025Z,15.46
2022-10-04T14:11:44.060Z,15.65
2022-10-04T14:15:05.718Z,15.68
2022-10-04T14:18:31.096Z,15.84
2022-10-04T14:21:49.244Z,15.67
2022-10-04T14:25:08.176Z,15.73
2022-10-04T14:28:16.769Z,15.73
2022-10-04T14:31:33.354Z,15.93
2022-10-04T14:34:51.139Z,15.85
2022-10-04T14:38:13.914Z,15.88
2022-10-04T14:41:34.051Z,15.89
2022-10-04T14:44:48.806Z,15.95
2022-10-04T14:48:08.985Z,15.95
2022-10-04T14:51:19.692Z,16.07
2022-10-04T14:54:29.945Z,16.07
2022-10-04T14:57:47.291Z,16.10
2022-10-04T15:01:02.287Z,16.19
2022-10-04T15:04:11.041Z,16.24
2022-10-04T15:07:17.963Z,16.28
2022-10-04T15:10:22.219Z,16.59
2022-10-04T15:13:25.994Z,16.66
2022-10-04T15:16:36.935Z,16.70
2022-10-04T15:19:54.093Z,16.73
2022-10-04T15:22:56.833Z,16.80
2022-10-04T15:26:02.090Z,16.76
2022-10-04T15:29:12.259Z,16.95
2022-10-04T15:32:20.643Z,17.09
2022-10-04T15:35:28.150Z,17.23
2022-10-04T15:38:31.763Z,17.37
2022-10-04T15:41:37.198Z,17.44
2022-10-04T15:44:45.830Z,17.61
2022-10-04T15:48:02.277Z,17.68
2022-10-04T15:51:10.190Z,17.75
2022-10-04T15:54:17.709Z,17.90
2022-10-04T15:57:26.678Z,17.99
2022-10-04T16:00:29.562Z,18.03
2022-10-04T16:03:39.508Z,17.82
2022-10-04T16:06:45.672Z,18.12
2022-10-04T16:09:50.392Z,17.73
2022-10-04T16:13:09.967Z,17.40
2022-10-04T16:16:31.142Z,16.97
2022-10-04T16:19:43.299Z,16.70
2022-10-04T16:22:59.860Z,16.16
2022-10-04T16:26:04.170Z,15.11
2022-10-04T16:29:12.815Z,14.53
2022-10-04T16:32:17.219Z,14.24
2022-10-04T16:35:24.888Z,13.88
2022-10-04T16:38:27.021Z,13.94
2022-10-04T16:41:34.243Z,13.77
2022-10-04T16:44:38.653Z,13.32
2022-10-04T16:47:50.186Z,12.91
2022-10-04T16:51:09.459Z,12.45
2022-10-04T16:54:31.003Z,12.30
2022-10-04T16:57:34.153Z,12.41
2022-10-04T17:00:36.122Z,12.20
2022-10-04T17:03:46.050Z,11.88
2022-10-04T17:06:50.419Z,11.65
2022-10-04T17:09:55.834Z,11.50
2022-10-04T17:13:06.434Z,11.24
2022-10-04T17:16:11.526Z,11.32
2022-10-04T17:19:15.140Z,11.37
2022-10-04T17:22:23.810Z,11.21
2022-10-04T17:25:29.629Z,11.01
2022-10-04T17:28:34.855Z,10.55
2022-10-04T17:31:44.238Z,10.58
2022-10-04T17:34:51.018Z,10.43
2022-10-04T17:37:56.420Z,10.73
2022-10-04T17:41:02.976Z,10.33
2022-10-04T17:44:17.067Z,10.21
2022-10-04T17:47:24.183Z,10.15
2022-10-04T17:50:29.184Z,10.28
2022-10-04T17:53:33.986Z,10.16
2022-10-04T17:56:39.311Z,10.06
2022-10-04T17:59:44.595Z,9.90
2022-10-04T18:03:01.249Z,9.54
2022-10-04T18:06:11.438Z,9.43
2022-10-04T18:09:19.835Z,9.34
2022-10-04T18:12:27.230Z,9.13
2022-10-04T18:15:32.303Z,8.94
2022-10-04T18:18:38.552Z,9.17
2022-10-04T18:21:49.031Z,9.71
2022-10-04T18:25:11.977Z,10.00
2022-10-04T18:28:14.800Z,10.17
2022-10-04T18:31:23.665Z,10.17
2022-10-04T18:34:28.460Z,9.72
2022-10-04T18:37:33.944Z,9.58
2022-10-04T18:40:42.970Z,9.29
2022-10-04T18:43:51.467Z,9.34
2022-10-04T18:47:00.568Z,9.31
2022-10-04T18:50:14.381Z,9.18
2022-10-04T18:53:37.093Z,9.24
2022-10-04T18:56:42.676Z,9.38
2022-10-04T18:59:50.840Z,8.95
2022-10-04T19:03:00.274Z,8.91
2022-10-04T19:06:06.413Z,8.58
2022-10-04T19:09:13.869Z,8.55
2022-10-04T19:12:18.066Z,8.66
2022-10-04T19:15:26.974Z,9.11
2022-10-04T19:18:39.023Z,9.39
2022-10-04T19:21:46.146Z,9.44
2022-10-04T19:24:56.060Z,8.97
2022-10-04T19:28:01.165Z,8.79
2022-10-04T19:31:12.096Z,8.97
2022-10-04T19:34:19.088Z,9.17
2022-10-04T19:37:24.537Z,9.38
2022-10-04T19:40:29.228Z,9.51
2022-10-04T19:43:34.654Z,9.05
2022-10-04T19:46:39.001Z,8.67
2022-10-04T19:49:49.589Z,8.98
2022-10-04T19:52:53.886Z,8.83
2022-10-04T19:55:57.090Z,9.06
2022-10-04T19:59:04.596Z,9.26
2022-10-04T20:02:09.378Z,9.34
2022-10-04T20:05:14.853Z,9.42
2022-10-04T20:08:37.042Z,9.04
2022-10-04T20:11:46.770Z,8.80
2022-10-04T20:14:48.675Z,8.55
2022-10-04T20:17:50.569Z,8.67
2022-10-04T20:21:09.869Z,8.42
2022-10-04T20:24:15.810Z,8.48
2022-10-04T20:27:32.244Z,8.36
2022-10-04T20:30:49.719Z,7.80
2022-10-04T20:33:51.506Z,7.60
2022-10-04T20:36:54.769Z,7.34
2022-10-04T20:39:56.995Z,7.43
2022-10-04T20:43:13.642Z,7.88
2022-10-04T20:46:21.981Z,8.30
2022-10-04T20:49:23.671Z,8.00
2022-10-04T20:52:28.036Z,7.71
2022-10-04T20:55:31.163Z,7.58
2022-10-04T20:58:33.506Z,7.53
2022-10-04T21:01:36.234Z,7.71
2022-10-04T21:04:38.028Z,7.94
2022-10-04T21:07:41.138Z,8.04
2022-10-04T21:10:57.759Z,8.06
2022-10-04T21:14:00.073Z,7.99
2022-10-04T21:17:03.182Z,8.17
2022-10-04T21:20:06.038Z,8.29
2022-10-04T21:23:09.359Z,8.08
2022-10-04T21:26:20.572Z,8.05
2022-10-04T21:29:22.197Z,8.04
2022-10-04T21:32:24.742Z,8.23
2022-10-04T21:35:26.460Z,8.35
2022-10-04T21:38:29.475Z,8.15
2022-10-04T21:41:31.230Z,8.27
2022-10-04T21:44:32.960Z,8.33
2022-10-04T21:47:34.581Z,8.43
2022-10-04T21:50:36.598Z,8.51
2022-10-04T21:53:39.593Z,8.18
2022-10-04T21:56:41.222Z,7.77
2022-10-04T21:59:42.823Z,7.47
2022-10-04T22:02:44.535Z,7.63
2022-10-04T22:05:46.234Z,7.93
2022-10-04T22:08:49.299Z,8.11
2022-10-04T22:11:51.050Z,8.33
2022-10-04T22:14:52.697Z,8.45
2022-10-04T22:17:54.832Z,8.39
2022-10-04T22:20:56.812Z,8.44
2022-10-04T22:23:59.934Z,8.31
2022-10-04T22:27:01.816Z,7.78
2022-10-04T22:30:03.660Z,7.45
2022-10-04T22:33:23.168Z,7.59
2022-10-04T22:36:27.247Z,7.78
2022-10-04T22:39:32.214Z,8.04
2022-10-04T22:42:33.817Z,8.24
2022-10-04T22:45:36.377Z,8.08
2022-10-04T22:48:38.021Z,7.93
2022-10-04T22:51:40.383Z,8.10
2022-10-04T22:54:44.721Z,8.17
2022-10-04T22:57:46.449Z,8.19
2022-10-04T23:00:48.996Z,8.18
2022-10-04T23:03:50.849Z,8.09
2022-10-04T23:06:52.858Z,7.72
2022-10-04T23:09:55.891Z,7.82
2022-10-04T23:12:57.559Z,7.38
2022-10-04T23:16:00.305Z,7.56
2022-10-04T23:19:09.246Z,7.71
2022-10-04T23:22:14.859Z,7.85
2022-10-04T23:25:19.014Z,7.95
2022-10-04T23:28:21.189Z,8.08
2022-10-04T23:31:24.339Z,7.54
2022-10-04T23:34:27.880Z,7.41
2022-10-04T23:37:30.878Z,7.16
2022-10-04T23:40:33.877Z,7.35
2022-10-04T23:43:35.665Z,7.56
2022-10-04T23:46:37.330Z,7.70
2022-10-04T23:49:39.213Z,7.84
2022-10-04T23:52:40.805Z,7.90
2022-10-04T23:55:44.436Z,7.90
2022-10-04T23:58:46.449Z,7.90
